IXN weather

Khowai Airport
Khowai, Tripura, India

Public forecast

Using degrees Celsius for public forecast. Weather courtesy of forecast.io.

METAR (pilot weather report)

Closest report is Agartala Airport, 22.5 nm (41.7 km) WSW. Retrieved 2019/08/25 10:30 UTC (0 seconds ago):

VEAT 251030Z 00000KT 6000 FEW020 SCT025 34/28 Q1001 NOSIG

TAF (pilot weather forecast)

Forecast is more than 12 hours old.

Closest forecast is Agartala Airport, 22.5 nm (41.7 km) WSW. Retrieved 2013/07/19 12:00 UTC (6 years ago):

TAF VEAT 190900Z 1912/1921 16008KT 5000 HZ SCT018 FEW030CB BKN100 TEMPO 1912/1921 3000 -TSRA SCT015 FEW025CB OVC090